Altamira, Altamira, Mexico

Altamira (ITAMAULI20) Elev 21 m | 22.39 °N, 97.91 °W | Change Station

Weather Conditions 1 second ago 10:35 PM CST (GMT -0600) Feb 10, 2014

Scattered Clouds
Scattered Clouds
20.6 °C
Feels Like 20.6 °C
N
6.9
Wind Variable Wind from NE
Gusts 13.7 km/h
Sunrise 7:05 AM
Sunset 6:25 PM
Moon Waxing Gibbous

Tomorrow is forecast to be Much Cooler than today. Morning showers.

Pressure 1014 hPa
Visibility 6.4 kilometers
Clouds Few 304 m
Scattered Clouds 6096 m
Dew Point 19 °C
Humidity 92%
Rainfall 0 mm
UV 0 out of 16
Pollen Not available.
Air Quality Not available.
Flu Activity Not available.
METAR MMTM 110345Z 09004KT 4SM FEW010 SCT200 21/19 A2996 RMK 8/101 HZY

More Conditions Fewer Conditions

Pressure 1014 hPa
Visibility 6.4 kilometers
Clouds Few 304 m
Scattered Clouds 6096 m
Dew Point 19 °C
Humidity 92%
Rainfall 0 mm
UV 0 out of 16
Pollen Not available.
Air Quality Not available.
Flu Activity Not available.
METAR MMTM 110345Z 09004KT 4SM FEW010 SCT200 21/19 A2996 RMK 8/101 HZY

More Conditions Fewer Conditions

Forecast

VISITAS 1 visitantes (2 clics a subpáginas) ¡Aqui en esta página!